Terminal Aerodrome Forecast
Issued by NWS Buffalo, NY

Current Version | Previous Version | Text Only | Print | Product List | Glossary On
Versions: 1 2 3 4 5 6 7 8 9 10 11 12 13 14 15 16 17 18 19 20 21 22 23
000
FTUS41 KBUF 280900 AAA
TAFART
TAF AMD
KART 280935Z 2810/2906 23015G25KT P6SM -SHRA OVC020
      TEMPO 2810/2811 5SM RA BKN008
     FM281100 25014G25KT P6SM VCSH BKN012
     FM281300 26013G20KT P6SM BKN020
     FM281900 27012KT P6SM BKN200
     FM282300 27007KT P6SM SCT200=

USA.gov is the U.S. government's official web portal to all federal, state and local government web resources and services.